Time;durP1;ratioP1;P1;durP2;ratioP2;P2;SDS_P1;SDS_P2;PMS_P1;PMS_P2;Temp;Humidity;BMP_temperature;BMP_pressure;BME280_temperature;BME280_humidity;BME280_pressure;Samples;Min_cycle;Max_cycle;Signal;HPM_P1;HPM_P2
2022/01/13 00:01:05;;;;;;;33.80;23.37;;;;;;;0.78;73.06;97686.09;5034096;28;20222;-80
2022/01/13 00:03:31;;;;;;;33.23;22.50;;;;;;;0.93;72.80;97682.94;5032441;28;20194;-80
2022/01/13 00:05:58;;;;;;;33.83;23.27;;;;;;;0.99;72.44;97674.22;5032193;28;20201;-81
2022/01/13 00:08:49;;;;;;;35.50;23.97;;;;;;;1.03;72.25;97675.72;5017974;28;20202;-80
2022/01/13 00:11:15;;;;;;;32.87;22.17;;;;;;;1.11;71.73;97678.78;5035796;28;20218;-79
2022/01/13 00:13:48;;;;;;;34.93;23.07;;;;;;;1.15;72.16;97675.22;5032480;28;20195;-80
2022/01/13 00:16:37;;;;;;;36.03;24.30;;;;;;;1.20;71.68;97675.81;5032334;28;20946;-80
2022/01/13 00:19:17;;;;;;;31.43;21.53;;;;;;;1.21;71.79;97680.00;5018100;28;20272;-80
2022/01/13 00:21:51;;;;;;;33.57;23.57;;;;;;;1.18;71.54;97682.69;5017686;28;20222;-80
2022/01/13 00:24:19;;;;;;;35.03;23.97;;;;;;;1.23;72.20;97687.56;5026761;28;20248;-80
2022/01/13 00:26:46;;;;;;;33.47;22.57;;;;;;;1.28;72.02;97683.09;5037039;28;20222;-79
2022/01/13 00:29:19;;;;;;;33.77;23.63;;;;;;;1.33;71.94;97693.88;5027822;28;20281;-80
2022/01/13 00:31:47;;;;;;;38.37;24.83;;;;;;;1.39;71.64;97701.22;5018255;28;20292;-80
2022/01/13 00:34:16;;;;;;;32.90;23.10;;;;;;;1.42;71.58;97703.63;5019081;28;20789;-80
2022/01/13 00:36:44;;;;;;;34.97;22.30;;;;;;;1.45;71.64;97700.94;5029603;28;20218;-79
2022/01/13 00:39:16;;;;;;;34.67;22.87;;;;;;;1.44;71.57;97698.47;5027418;28;20239;-80
2022/01/13 00:41:48;;;;;;;36.93;23.57;;;;;;;1.42;72.16;97707.88;5017034;28;20214;-80
2022/01/13 00:44:20;;;;;;;32.77;23.60;;;;;;;1.44;72.30;97708.63;5029769;28;20202;-80
2022/01/13 00:46:48;;;;;;;36.77;23.97;;;;;;;1.42;72.22;97708.69;5038311;28;20238;-80
2022/01/13 00:49:16;;;;;;;40.20;25.03;;;;;;;1.48;71.96;97707.59;5029945;28;20203;-80
2022/01/13 00:51:43;;;;;;;36.97;25.53;;;;;;;1.47;72.49;97708.50;5039686;28;20229;-80
2022/01/13 00:54:10;;;;;;;36.40;24.20;;;;;;;1.46;72.28;97705.13;5031168;28;20306;-81
2022/01/13 00:56:39;;;;;;;34.90;24.47;;;;;;;1.48;72.33;97705.88;5021993;28;20226;-80
2022/01/13 00:59:09;;;;;;;35.47;23.63;;;;;;;1.51;72.42;97707.47;5032367;28;20225;-80
2022/01/13 01:01:36;;;;;;;37.87;25.00;;;;;;;1.49;71.95;97699.94;5042517;28;20226;-80
2022/01/13 01:04:05;;;;;;;39.13;25.87;;;;;;;1.28;72.62;97704.22;5040501;28;20198;-80
2022/01/13 01:06:34;;;;;;;42.10;26.50;;;;;;;1.09;73.84;97702.56;5040047;28;20229;-80
2022/01/13 01:09:05;;;;;;;40.37;26.30;;;;;;;0.94;74.95;97707.41;5022067;28;20265;-79
2022/01/13 01:11:31;;;;;;;40.73;26.10;;;;;;;0.95;74.83;97693.00;5038520;28;20252;-80
2022/01/13 01:13:59;;;;;;;39.50;26.67;;;;;;;1.01;74.73;97683.41;5031057;28;20207;-81
2022/01/13 01:16:27;;;;;;;38.87;25.63;;;;;;;1.15;74.06;97685.38;5026239;28;20654;-79
2022/01/13 01:19:01;;;;;;;38.10;25.43;;;;;;;1.18;73.78;97697.06;5020640;28;20214;-80
2022/01/13 01:21:50;;;;;;;39.70;25.73;;;;;;;1.21;73.85;97700.31;5020450;28;20250;-79
2022/01/13 01:27:05;;;;;;;37.27;24.57;;;;;;;1.24;73.98;97706.97;5022627;28;20224;-81
2022/01/13 01:29:37;;;;;;;40.37;25.27;;;;;;;1.26;74.23;97713.63;5020195;28;20253;-79
2022/01/13 01:32:10;;;;;;;38.30;25.57;;;;;;;1.30;73.81;97707.53;5021214;28;20244;-78
2022/01/13 01:34:52;;;;;;;37.70;24.63;;;;;;;1.34;73.88;97705.69;5020154;28;20257;-78
2022/01/13 01:37:19;;;;;;;41.03;25.67;;;;;;;1.42;73.63;97711.22;5020792;28;20765;-80
2022/01/13 01:39:48;;;;;;;38.37;24.47;;;;;;;1.43;73.26;97710.34;5019620;28;20237;-81
2022/01/13 01:42:15;;;;;;;33.40;24.27;;;;;;;1.37;73.63;97705.53;5038116;28;20572;-82
2022/01/13 01:44:44;;;;;;;35.67;24.87;;;;;;;1.43;73.02;97706.97;5039640;28;20198;-80
2022/01/13 01:47:14;;;;;;;36.47;24.47;;;;;;;1.46;73.02;97709.38;5024796;28;20233;-81
2022/01/13 01:49:45;;;;;;;38.70;26.20;;;;;;;1.48;72.87;97712.69;5038520;28;20254;-79
2022/01/13 01:52:16;;;;;;;38.97;25.67;;;;;;;1.53;72.53;97703.97;5021507;28;20223;-79
2022/01/13 01:54:43;;;;;;;43.00;25.47;;;;;;;1.56;72.37;97703.00;5019081;28;20222;-79
2022/01/13 01:57:10;;;;;;;40.03;25.13;;;;;;;1.61;72.31;97706.97;5034189;28;20219;-80
2022/01/13 01:59:41;;;;;;;38.07;26.10;;;;;;;1.52;72.26;97701.50;5019307;28;20231;-80
2022/01/13 02:02:10;;;;;;;36.33;25.07;;;;;;;1.51;72.77;97705.75;5033627;28;20198;-79
2022/01/13 02:04:37;;;;;;;38.83;24.30;;;;;;;1.52;72.90;97709.13;5038628;28;20193;-79
2022/01/13 02:07:07;;;;;;;36.13;24.67;;;;;;;1.52;72.57;97709.94;5034072;28;20219;-80
2022/01/13 02:09:41;;;;;;;38.37;24.67;;;;;;;1.50;72.62;97696.50;5023048;28;20225;-79
2022/01/13 02:12:21;;;;;;;38.67;24.70;;;;;;;1.48;72.77;97708.44;5020927;28;20222;-80
2022/01/13 02:14:56;;;;;;;38.87;25.10;;;;;;;1.33;73.33;97696.44;5017755;28;20202;-79
2022/01/13 02:17:26;;;;;;;36.97;25.17;;;;;;;1.33;73.52;97694.72;5035916;28;20229;-79
2022/01/13 02:19:56;;;;;;;34.73;24.67;;;;;;;1.23;74.12;97701.06;5036928;28;20230;-79
2022/01/13 02:22:24;;;;;;;38.20;23.73;;;;;;;1.23;73.99;97702.78;5020248;28;20205;-79
2022/01/13 02:24:51;;;;;;;36.70;23.57;;;;;;;1.14;73.93;97705.72;5020107;28;20207;-80
2022/01/13 02:27:17;;;;;;;35.97;24.23;;;;;;;1.08;74.07;97690.75;5033294;28;20218;-79
2022/01/13 02:29:48;;;;;;;33.80;23.40;;;;;;;1.13;74.04;97696.47;5037891;28;20230;-80
2022/01/13 02:32:16;;;;;;;36.33;23.80;;;;;;;1.22;74.23;97694.34;5036456;28;20621;-80
2022/01/13 02:34:43;;;;;;;36.73;23.93;;;;;;;1.22;73.67;97686.72;5039171;28;20197;-80
2022/01/13 02:37:10;;;;;;;37.13;23.30;;;;;;;1.21;73.60;97691.88;5023636;28;20218;-80
2022/01/13 02:39:41;;;;;;;36.67;23.23;;;;;;;1.20;73.68;97700.38;5037912;28;20233;-81
2022/01/13 02:42:12;;;;;;;35.87;23.90;;;;;;;1.19;73.93;97689.41;5019688;28;20547;-80
2022/01/13 02:44:48;;;;;;;37.50;24.47;;;;;;;1.16;73.77;97683.63;5018432;28;20217;-79
2022/01/13 02:47:33;;;;;;;35.80;24.00;;;;;;;1.14;74.07;97681.19;5026422;28;20280;-78
2022/01/13 02:50:00;;;;;;;34.67;23.83;;;;;;;1.18;73.51;97684.38;5037238;28;20253;-80
2022/01/13 02:52:27;;;;;;;34.40;23.33;;;;;;;1.20;73.54;97688.50;5039424;28;20221;-79
2022/01/13 02:54:56;;;;;;;34.87;23.93;;;;;;;1.24;73.58;97689.19;5037198;28;20209;-81
2022/01/13 02:57:23;;;;;;;35.27;23.57;;;;;;;1.21;73.44;97691.88;5024198;28;20237;-79
2022/01/13 02:59:49;;;;;;;36.97;24.03;;;;;;;1.12;73.94;97692.28;5037225;28;20237;-79
2022/01/13 03:02:15;;;;;;;34.73;23.33;;;;;;;1.21;74.07;97697.78;5035352;28;20198;-80
2022/01/13 03:04:47;;;;;;;35.30;23.60;;;;;;;1.28;73.76;97699.16;5020230;28;20198;-79
2022/01/13 03:07:13;;;;;;;38.17;24.10;;;;;;;1.34;73.46;97700.59;5029390;28;20245;-79
2022/01/13 03:09:40;;;;;;;35.13;23.80;;;;;;;1.42;73.45;97701.06;5023793;28;20617;-80
2022/01/13 03:12:09;;;;;;;35.27;24.17;;;;;;;1.42;72.93;97700.25;5032423;28;20218;-80
2022/01/13 03:14:35;;;;;;;38.53;25.37;;;;;;;1.43;72.91;97697.66;5055930;28;20202;-79
2022/01/13 03:17:02;;;;;;;36.80;23.40;;;;;;;1.21;73.44;97702.84;5043053;28;20226;-79
2022/01/13 03:19:28;;;;;;;38.13;25.50;;;;;;;1.06;74.40;97705.22;5036458;28;20194;-80
2022/01/13 03:21:54;;;;;;;38.07;23.93;;;;;;;1.03;74.14;97706.19;5026786;28;20286;-80
2022/01/13 03:24:21;;;;;;;35.03;23.53;;;;;;;1.06;74.33;97720.44;5037547;28;20264;-80
2022/01/13 03:26:49;;;;;;;36.20;24.80;;;;;;;1.12;73.95;97713.41;5027091;28;20610;-79
2022/01/13 03:29:20;;;;;;;37.77;24.33;;;;;;;1.18;73.84;97709.75;5016388;28;20654;-80
2022/01/13 03:31:49;;;;;;;35.27;23.93;;;;;;;1.23;73.67;97710.38;5018195;28;20305;-80
2022/01/13 03:34:16;;;;;;;38.13;24.80;;;;;;;1.25;74.25;97722.13;5037612;28;20209;-79
2022/01/13 03:36:44;;;;;;;37.27;23.97;;;;;;;1.31;73.55;97709.19;5019428;28;20219;-80
2022/01/13 03:39:12;;;;;;;38.80;24.60;;;;;;;1.30;73.49;97692.31;5026188;28;20203;-79
2022/01/13 03:41:40;;;;;;;35.47;23.77;;;;;;;1.24;73.63;97701.88;5016761;28;20202;-80
2022/01/13 03:44:16;;;;;;;35.33;23.63;;;;;;;1.22;73.52;97696.88;5040497;28;20654;-79
2022/01/13 03:46:44;;;;;;;35.53;23.60;;;;;;;1.20;73.66;97695.28;5040157;28;20225;-80
2022/01/13 03:49:10;;;;;;;37.43;23.90;;;;;;;1.13;73.75;97692.22;5039975;28;20205;-79
2022/01/13 03:52:26;;;;;;;34.67;23.40;;;;;;;1.14;74.10;97687.97;5040035;28;20233;-80
2022/01/13 03:55:31;;;;;;;34.60;23.47;;;;;;;1.12;74.08;97688.03;4960422;29;20264;-82
2022/01/13 03:59:08;;;;;;;37.80;24.03;;;;;;;1.16;73.86;97691.25;5006883;28;20229;-81
2022/01/13 04:02:03;;;;;;;36.93;24.20;;;;;;;1.03;74.22;97691.78;5040147;28;20240;-78
2022/01/13 04:04:32;;;;;;;36.83;23.30;;;;;;;1.03;74.22;97694.31;5020791;28;20203;-80
2022/01/13 04:07:08;;;;;;;36.33;23.83;;;;;;;1.13;74.00;97687.16;5021005;28;20227;-78
2022/01/13 04:10:11;;;;;;;32.60;22.90;;;;;;;1.12;74.10;97684.66;5036463;28;20521;-80
2022/01/13 04:12:38;;;;;;;37.07;24.17;;;;;;;1.18;74.07;97676.78;5025566;28;20566;-80
2022/01/13 04:15:11;;;;;;;36.30;23.87;;;;;;;1.06;74.22;97672.25;5039197;28;20257;-79
2022/01/13 04:17:39;;;;;;;38.07;23.33;;;;;;;0.95;74.55;97671.00;5031588;28;20304;-79
2022/01/13 04:20:06;;;;;;;35.50;24.00;;;;;;;0.84;75.06;97673.16;5038896;28;20250;-81
2022/01/13 04:22:33;;;;;;;38.27;24.33;;;;;;;0.90;75.25;97664.47;5023872;28;20194;-81
2022/01/13 04:24:59;;;;;;;35.37;23.50;;;;;;;0.94;74.85;97681.22;5038962;28;20213;-80
2022/01/13 04:27:30;;;;;;;37.87;24.90;;;;;;;1.02;74.28;97687.59;5022903;28;20217;-81
2022/01/13 04:30:22;;;;;;;38.33;23.60;;;;;;;1.11;74.34;97688.09;5027567;28;20227;-80
2022/01/13 04:32:49;;;;;;;37.20;25.00;;;;;;;1.14;74.11;97691.34;5018946;28;20278;-80
2022/01/13 04:35:16;;;;;;;37.93;23.93;;;;;;;1.01;74.71;97705.41;5031087;28;20215;-79
2022/01/13 04:37:42;;;;;;;36.60;23.90;;;;;;;0.95;74.71;97706.53;5037476;28;20279;-79
2022/01/13 04:40:09;;;;;;;34.80;23.30;;;;;;;0.88;75.27;97704.28;5050196;28;20253;-78
2022/01/13 04:42:37;;;;;;;37.90;22.87;;;;;;;1.00;74.67;97696.97;5045298;28;20191;-78
2022/01/13 04:45:04;;;;;;;38.67;25.47;;;;;;;1.04;74.39;97700.22;5039053;28;20202;-78
2022/01/13 04:47:32;;;;;;;40.07;24.80;;;;;;;1.10;74.02;97707.56;5050143;28;20237;-79
2022/01/13 04:50:00;;;;;;;36.97;24.03;;;;;;;1.06;74.25;97700.97;5059850;28;20253;-79
2022/01/13 04:52:26;;;;;;;37.13;23.63;;;;;;;0.81;74.42;97698.66;5049780;28;20229;-79
2022/01/13 04:54:53;;;;;;;36.10;23.10;;;;;;;0.71;75.82;97691.50;5050061;28;20807;-78
2022/01/13 04:57:19;;;;;;;37.97;22.60;;;;;;;0.53;76.59;97691.38;5050207;28;20222;-79
2022/01/13 04:59:46;;;;;;;34.23;22.60;;;;;;;0.68;76.45;97689.91;5032931;28;20232;-79
2022/01/13 05:02:14;;;;;;;36.13;23.37;;;;;;;0.82;75.59;97669.03;5027026;28;20195;-79
2022/01/13 05:04:41;;;;;;;35.30;22.20;;;;;;;0.96;74.92;97684.53;5021030;28;20206;-79
2022/01/13 05:07:08;;;;;;;36.10;23.70;;;;;;;0.99;74.13;97684.34;5020156;28;20223;-80
2022/01/13 05:09:35;;;;;;;34.93;22.30;;;;;;;0.95;73.94;97688.75;5036491;28;20237;-79
2022/01/13 05:12:02;;;;;;;37.80;24.27;;;;;;;0.92;74.49;97690.59;5040367;28;20233;-81
2022/01/13 05:14:30;;;;;;;36.10;23.10;;;;;;;0.91;74.22;97688.97;5022266;28;20229;-80
2022/01/13 05:17:02;;;;;;;35.97;23.33;;;;;;;0.94;74.40;97688.84;5018752;28;20239;-79
2022/01/13 05:19:34;;;;;;;38.13;22.87;;;;;;;0.81;75.03;97688.50;5031068;28;20285;-79
2022/01/13 05:22:16;;;;;;;34.13;22.40;;;;;;;0.92;74.89;97698.22;5024061;28;20195;-80
2022/01/13 05:24:46;;;;;;;35.67;22.83;;;;;;;0.95;74.28;97709.06;5027584;28;20288;-78
2022/01/13 05:27:13;;;;;;;35.50;22.97;;;;;;;0.97;74.41;97707.25;5038779;28;20230;-79
2022/01/13 05:29:40;;;;;;;37.27;23.50;;;;;;;1.01;74.30;97705.41;5026579;28;20233;-80
2022/01/13 05:32:07;;;;;;;37.17;23.13;;;;;;;0.97;74.28;97703.88;5019097;28;20218;-80
2022/01/13 05:34:34;;;;;;;35.57;22.77;;;;;;;0.91;74.34;97710.06;5020693;28;20842;-80
2022/01/13 05:37:00;;;;;;;34.87;22.83;;;;;;;0.89;74.68;97705.94;5041112;28;20251;-79
2022/01/13 05:39:27;;;;;;;35.47;23.20;;;;;;;0.87;74.66;97700.94;5029870;28;20197;-78
2022/01/13 05:42:01;;;;;;;34.67;22.40;;;;;;;0.81;74.84;97705.44;5033075;28;20206;-79
2022/01/13 05:44:29;;;;;;;36.47;23.10;;;;;;;0.82;74.97;97715.50;5045272;28;20198;-79
2022/01/13 05:46:55;;;;;;;37.57;23.30;;;;;;;0.81;74.59;97710.50;5034407;28;20236;-80
2022/01/13 05:49:22;;;;;;;33.47;22.07;;;;;;;0.74;74.59;97712.50;5025200;28;20228;-79
2022/01/13 05:51:48;;;;;;;36.67;23.03;;;;;;;0.80;74.35;97703.78;5035057;28;20293;-80
2022/01/13 05:54:15;;;;;;;33.80;22.50;;;;;;;0.78;74.79;97710.63;5036520;28;20212;-80
2022/01/13 05:56:41;;;;;;;33.83;22.03;;;;;;;0.76;74.26;97704.81;5038694;28;20226;-80
2022/01/13 05:59:09;;;;;;;32.57;21.63;;;;;;;0.81;74.31;97703.72;5038423;28;20197;-79
2022/01/13 06:01:38;;;;;;;34.80;22.20;;;;;;;0.82;74.46;97714.69;5037775;28;20213;-80
2022/01/13 06:04:05;;;;;;;35.10;21.50;;;;;;;0.83;74.08;97712.09;5038553;28;20217;-79
2022/01/13 06:06:31;;;;;;;32.67;20.77;;;;;;;0.81;73.83;97720.66;5037694;28;20233;-79
2022/01/13 06:08:58;;;;;;;34.13;21.87;;;;;;;0.73;74.29;97730.28;5036537;28;20681;-80
2022/01/13 06:11:26;;;;;;;34.10;22.17;;;;;;;0.66;74.43;97728.00;5036564;28;20234;-79
2022/01/13 06:13:52;;;;;;;32.13;20.93;;;;;;;0.60;74.92;97733.31;5036375;28;20305;-80
2022/01/13 06:16:23;;;;;;;35.53;21.83;;;;;;;0.67;74.26;97747.41;5035901;28;20209;-79
2022/01/13 06:18:49;;;;;;;31.57;20.83;;;;;;;0.69;74.31;97739.72;5036244;28;20206;-79
2022/01/13 06:21:16;;;;;;;31.23;20.37;;;;;;;0.69;74.25;97738.03;5036683;28;20238;-79
2022/01/13 06:23:46;;;;;;;32.93;21.17;;;;;;;0.71;74.07;97739.69;5030568;28;20700;-82
2022/01/13 06:26:13;;;;;;;34.57;22.93;;;;;;;0.66;73.85;97742.38;5030100;28;20561;-81
2022/01/13 06:28:50;;;;;;;;;;;;;;;;;;;;;
2022/01/13 06:31:56;;;;;;;32.83;20.43;;;;;;;0.69;73.71;97737.19;4995636;28;20238;-79
2022/01/13 06:34:23;;;;;;;30.23;20.67;;;;;;;0.65;74.26;97739.03;5014997;28;20226;-80
2022/01/13 06:36:51;;;;;;;32.13;20.67;;;;;;;0.63;74.34;97748.41;5029833;28;20222;-79
2022/01/13 06:39:20;;;;;;;28.43;18.70;;;;;;;0.58;74.37;97741.88;5030933;28;20236;-80
2022/01/13 06:41:47;;;;;;;34.00;20.10;;;;;;;0.52;74.72;97752.28;5023525;28;20198;-79
2022/01/13 06:44:13;;;;;;;30.10;19.90;;;;;;;0.38;74.58;97747.75;5025988;28;20202;-80
2022/01/13 06:46:40;;;;;;;29.67;19.67;;;;;;;0.37;74.83;97755.41;5063727;23;20555;-85
2022/01/13 06:49:08;;;;;;;29.87;19.60;;;;;;;0.36;74.72;97758.84;5031577;28;20264;-85
2022/01/13 06:51:34;;;;;;;30.03;19.70;;;;;;;0.38;74.72;97754.53;5030082;28;20222;-85
2022/01/13 06:54:01;;;;;;;30.97;20.17;;;;;;;0.44;74.64;97750.03;5031150;28;20233;-82
2022/01/13 06:56:28;;;;;;;32.23;20.23;;;;;;;0.44;75.14;97754.28;5032130;28;20225;-85
2022/01/13 06:58:55;;;;;;;31.77;20.60;;;;;;;0.44;74.89;97751.75;5032519;28;20202;-85
2022/01/13 07:01:23;;;;;;;30.00;20.43;;;;;;;0.41;75.21;97750.16;5031681;28;20253;-85
2022/01/13 07:03:49;;;;;;;33.23;20.33;;;;;;;0.39;75.13;97756.16;5031269;28;20194;-84
2022/01/13 07:06:17;;;;;;;30.07;19.93;;;;;;;0.38;74.92;97764.66;5032616;28;20736;-83
2022/01/13 07:08:43;;;;;;;32.53;19.60;;;;;;;0.41;75.16;97769.59;5032569;28;20217;-84
2022/01/13 07:11:10;;;;;;;29.40;19.63;;;;;;;0.52;74.61;97760.69;5031264;28;20233;-84
2022/01/13 07:13:36;;;;;;;31.13;20.17;;;;;;;0.53;74.04;97762.34;5031504;28;20249;-84
2022/01/13 07:16:06;;;;;;;33.93;21.20;;;;;;;0.55;73.78;97752.16;5031454;28;20237;-85
2022/01/13 07:18:38;;;;;;;32.30;19.70;;;;;;;0.55;73.87;97752.97;5034645;28;20201;-84
2022/01/13 07:21:05;;;;;;;31.77;21.90;;;;;;;0.58;73.43;97757.06;5035797;28;20253;-84
2022/01/13 07:23:33;;;;;;;52.07;33.57;;;;;;;0.50;74.31;97767.53;5036092;28;20699;-85
2022/01/13 07:25:59;;;;;;;35.27;21.33;;;;;;;0.52;73.79;97778.44;5034762;28;20861;-84
2022/01/13 07:28:26;;;;;;;29.97;20.23;;;;;;;0.54;73.77;97781.75;5036276;28;20210;-81
2022/01/13 07:30:53;;;;;;;31.63;19.90;;;;;;;0.57;73.32;97786.69;5034764;28;20237;-81
2022/01/13 07:33:19;;;;;;;29.27;19.23;;;;;;;0.59;73.32;97777.28;5036179;28;20253;-83
2022/01/13 07:35:45;;;;;;;31.73;19.97;;;;;;;0.65;73.53;97774.53;5035362;28;20218;-82
2022/01/13 07:38:12;;;;;;;33.50;19.50;;;;;;;0.66;73.71;97780.41;5036017;28;20209;-84
2022/01/13 07:40:40;;;;;;;29.70;20.13;;;;;;;0.65;73.75;97779.59;5035865;28;20237;-83
2022/01/13 07:43:06;;;;;;;27.60;19.03;;;;;;;0.69;73.44;97770.16;5033948;28;20202;-84
2022/01/13 07:45:33;;;;;;;28.57;18.63;;;;;;;0.71;73.42;97767.56;5035217;28;20245;-84
2022/01/13 07:47:59;;;;;;;30.90;20.17;;;;;;;0.70;72.99;97771.81;5034984;28;20573;-84
2022/01/13 07:50:26;;;;;;;29.70;20.40;;;;;;;0.77;72.94;97777.47;5034797;28;20230;-85
2022/01/13 07:52:52;;;;;;;30.70;20.00;;;;;;;0.83;72.77;97778.00;5034756;28;20681;-85
2022/01/13 07:55:19;;;;;;;27.77;19.00;;;;;;;0.86;72.63;97777.06;5034417;28;20720;-85
2022/01/13 07:57:49;;;;;;;28.20;19.17;;;;;;;0.91;72.40;97778.53;5034796;28;20206;-83
2022/01/13 08:00:17;;;;;;;28.80;19.17;;;;;;;0.84;72.63;97778.84;5034724;28;20234;-84
2022/01/13 08:02:43;;;;;;;33.67;20.27;;;;;;;0.68;73.13;97784.53;5034389;28;20198;-85
2022/01/13 08:05:11;;;;;;;31.17;20.03;;;;;;;0.68;72.94;97789.59;5035205;28;20218;-82
2022/01/13 08:07:38;;;;;;;30.43;19.90;;;;;;;0.75;73.23;97791.91;5035163;28;20208;-84
2022/01/13 08:10:06;;;;;;;33.57;20.33;;;;;;;0.76;72.93;97780.88;5034161;28;20234;-81
2022/01/13 08:12:32;;;;;;;31.10;19.77;;;;;;;0.78;72.77;97784.16;5034827;28;20552;-84
2022/01/13 08:15:00;;;;;;;30.07;18.97;;;;;;;0.75;72.49;97800.34;5035122;28;20210;-85
2022/01/13 08:20:11;;;;;;;28.97;20.23;;;;;;;0.74;72.81;97791.09;5014605;28;20237;-85
2022/01/13 08:22:38;;;;;;;31.10;19.03;;;;;;;0.82;72.81;97791.59;5014666;28;20196;-83
2022/01/13 08:25:05;;;;;;;29.33;19.30;;;;;;;0.82;72.51;97789.03;5014903;28;20210;-84
2022/01/13 08:27:31;;;;;;;30.43;19.83;;;;;;;0.85;72.13;97791.47;5017527;28;20214;-84
2022/01/13 08:29:58;;;;;;;29.93;19.80;;;;;;;0.87;71.82;97789.69;5032975;28;20226;-84
2022/01/13 08:32:25;;;;;;;28.30;18.73;;;;;;;0.91;71.91;97786.16;5034688;28;20674;-84
2022/01/13 08:34:52;;;;;;;31.13;20.20;;;;;;;0.85;72.47;97783.03;5034485;28;20222;-84
2022/01/13 08:37:19;;;;;;;27.77;18.97;;;;;;;0.97;71.97;97792.66;5034838;28;20209;-84
2022/01/13 08:39:48;;;;;;;27.50;19.43;;;;;;;1.10;71.58;97791.28;5034560;28;20255;-85
2022/01/13 08:42:15;;;;;;;30.27;19.43;;;;;;;1.36;71.11;97800.31;5034843;28;20210;-84
2022/01/13 08:44:42;;;;;;;30.93;20.27;;;;;;;1.70;70.27;97800.53;5034524;28;20209;-84
2022/01/13 08:47:10;;;;;;;33.63;19.20;;;;;;;1.98;68.79;97806.91;5034801;28;20661;-85
2022/01/13 08:49:38;;;;;;;28.57;18.90;;;;;;;2.06;68.05;97807.41;5034365;28;20264;-84
2022/01/13 08:52:06;;;;;;;28.80;19.33;;;;;;;2.03;68.01;97792.28;5033850;28;20576;-84
2022/01/13 08:54:33;;;;;;;31.73;21.33;;;;;;;2.05;68.11;97798.13;5035047;28;20222;-84
2022/01/13 08:57:00;;;;;;;65.57;41.37;;;;;;;1.83;68.96;97807.59;5034501;28;20222;-84
2022/01/13 08:59:27;;;;;;;34.37;21.33;;;;;;;1.45;69.54;97809.25;5034094;28;20209;-82
2022/01/13 09:01:54;;;;;;;32.63;20.13;;;;;;;1.56;70.15;97802.81;5032486;28;20426;-81
2022/01/13 09:04:21;;;;;;;29.77;20.37;;;;;;;1.86;69.31;97802.38;5031932;28;20209;-85
2022/01/13 09:06:48;;;;;;;27.77;19.63;;;;;;;2.14;68.19;97802.78;5030863;28;20225;-86
2022/01/13 09:09:15;;;;;;;32.37;20.67;;;;;;;2.24;68.03;97814.19;5032931;28;20198;-86
2022/01/13 09:11:42;;;;;;;26.63;19.20;;;;;;;2.57;67.19;97816.88;5032320;28;20194;-85
2022/01/13 09:14:08;;;;;;;29.77;20.63;;;;;;;2.80;66.44;97812.41;5033293;28;20226;-83
2022/01/13 09:16:41;;;;;;;31.43;21.00;;;;;;;3.02;65.84;97807.94;5034181;28;20237;-85
2022/01/13 09:19:12;;;;;;;28.77;19.90;;;;;;;3.36;65.51;97813.00;5045477;28;20193;-82
2022/01/13 09:21:40;;;;;;;32.03;21.07;;;;;;;3.59;64.35;97811.84;5052032;28;20308;-81
2022/01/13 09:24:11;;;;;;;30.57;20.90;;;;;;;3.71;63.70;97813.72;5042829;28;20583;-83
2022/01/13 09:26:38;;;;;;;28.77;19.97;;;;;;;3.76;63.23;97808.41;5032596;28;20214;-85
2022/01/13 09:29:06;;;;;;;30.40;21.07;;;;;;;3.89;62.66;97811.13;5033185;28;20201;-85
2022/01/13 09:31:33;;;;;;;29.43;20.50;;;;;;;4.08;62.18;97820.28;5031801;28;20230;-85
2022/01/13 09:34:02;;;;;;;32.60;21.70;;;;;;;4.29;62.21;97815.75;5033053;28;20747;-85
2022/01/13 09:36:28;;;;;;;31.43;20.97;;;;;;;4.36;62.03;97803.50;5032468;28;20238;-86
2022/01/13 09:38:55;;;;;;;32.10;22.47;;;;;;;4.34;61.46;97808.69;5032958;28;20201;-86
2022/01/13 09:41:25;;;;;;;29.73;20.40;;;;;;;4.26;61.02;97812.53;5031960;28;20277;-85
2022/01/13 09:43:53;;;;;;;33.30;21.87;;;;;;;4.14;61.72;97817.41;5031171;28;20205;-85
2022/01/13 09:46:19;;;;;;;30.87;22.63;;;;;;;4.27;61.87;97824.41;5032767;28;20736;-82
2022/01/13 09:48:46;;;;;;;31.53;22.40;;;;;;;4.33;62.01;97807.03;5033036;28;20198;-86
2022/01/13 09:51:13;;;;;;;36.70;23.43;;;;;;;4.50;61.37;97819.69;5032824;28;20265;-86
2022/01/13 09:53:39;;;;;;;35.03;23.57;;;;;;;4.50;60.93;97817.16;5032121;28;20220;-85
2022/01/13 09:56:07;;;;;;;31.67;22.97;;;;;;;4.57;61.06;97815.09;5032198;28;20229;-83
2022/01/13 09:58:35;;;;;;;34.00;23.50;;;;;;;4.64;60.91;97813.81;5032833;28;20202;-85
2022/01/13 10:01:01;;;;;;;37.07;24.63;;;;;;;4.79;60.70;97812.19;5033010;28;20244;-85
2022/01/13 10:03:29;;;;;;;30.87;22.17;;;;;;;4.81;60.28;97810.38;5032409;28;20197;-86
2022/01/13 10:05:58;;;;;;;32.40;23.17;;;;;;;4.95;59.68;97804.47;5032428;28;20237;-86
2022/01/13 10:08:42;;;;;;;34.00;23.93;;;;;;;5.11;58.98;97815.44;5032702;28;20604;-83
2022/01/13 10:11:24;;;;;;;34.20;22.87;;;;;;;5.17;58.00;97808.28;5032121;28;20235;-84
2022/01/13 10:14:06;;;;;;;39.33;23.83;;;;;;;5.25;58.45;97810.38;5032759;28;20713;-85
2022/01/13 10:16:32;;;;;;;32.70;23.00;;;;;;;5.32;58.49;97811.66;5033829;28;20250;-83
2022/01/13 10:18:58;;;;;;;33.73;23.40;;;;;;;5.18;58.07;97809.09;5044624;28;20201;-83
2022/01/13 10:21:25;;;;;;;35.55;29.08;;;;;;;5.40;58.45;97804.34;5032294;28;20456;-85
2022/01/13 10:24:06;;;;;;;34.50;24.57;;;;;;;5.49;57.45;97801.28;5032417;28;20260;-85
2022/01/13 10:26:34;;;;;;;35.70;24.67;;;;;;;5.57;57.71;97788.06;5026710;28;20233;-86
2022/01/13 10:29:02;;;;;;;36.30;25.07;;;;;;;5.63;57.21;97787.66;5030785;28;20198;-87
2022/01/13 10:31:49;;;;;;;35.90;23.60;;;;;;;5.61;57.50;97789.50;5031401;28;20611;-85
2022/01/13 10:34:18;;;;;;;36.50;25.23;;;;;;;5.74;57.39;97792.97;5031353;28;20573;-83
2022/01/13 10:36:59;;;;;;;38.03;24.57;;;;;;;5.63;56.42;97779.19;5032221;28;20228;-85
2022/01/13 10:39:44;;;;;;;31.87;23.33;;;;;;;4.98;57.41;97774.50;5030620;28;20828;-84
2022/01/13 10:42:33;;;;;;;38.57;24.50;;;;;;;5.03;58.76;97771.66;5031766;28;20221;-86
2022/01/13 10:45:01;;;;;;;36.03;23.50;;;;;;;5.27;58.39;97775.34;5032187;28;20559;-86
2022/01/13 10:47:30;;;;;;;33.17;22.83;;;;;;;5.45;57.90;97768.31;5031538;28;20216;-86
2022/01/13 10:50:04;;;;;;;37.80;23.90;;;;;;;5.61;56.94;97763.13;5032090;28;20621;-87
2022/01/13 10:52:30;;;;;;;34.67;23.50;;;;;;;5.73;56.79;97763.22;5031305;28;20200;-86
2022/01/13 10:55:02;;;;;;;32.23;22.03;;;;;;;5.79;56.88;97762.00;5031240;28;20221;-86
2022/01/13 10:57:30;;;;;;;33.63;21.90;;;;;;;5.84;56.61;97767.66;5032058;28;20217;-86
2022/01/13 10:59:57;;;;;;;30.03;21.93;;;;;;;5.80;56.66;97767.03;5032334;28;20230;-87
2022/01/13 11:02:26;;;;;;;33.30;23.80;;;;;;;5.95;56.61;97761.94;5032090;28;20201;-86
2022/01/13 11:05:01;;;;;;;33.07;22.73;;;;;;;6.10;55.71;97758.44;5032144;28;20240;-86
2022/01/13 11:07:29;;;;;;;31.60;22.57;;;;;;;6.16;55.04;97758.84;5027304;28;20597;-86
2022/01/13 11:09:57;;;;;;;37.37;23.13;;;;;;;6.22;56.36;97755.09;5031593;28;20305;-86
2022/01/13 11:12:33;;;;;;;34.73;24.43;;;;;;;6.20;55.47;97754.38;5032093;28;20205;-86
2022/01/13 11:15:04;;;;;;;32.93;22.80;;;;;;;6.12;55.58;97748.94;5031713;28;20592;-86
2022/01/13 11:17:38;;;;;;;38.23;23.60;;;;;;;6.05;55.70;97745.09;5031185;28;20293;-86
2022/01/13 11:20:06;;;;;;;32.27;21.83;;;;;;;6.17;55.97;97732.38;5034397;28;20233;-86
2022/01/13 11:22:36;;;;;;;34.40;23.77;;;;;;;6.39;55.07;97733.56;5031785;28;20573;-85
2022/01/13 11:25:04;;;;;;;31.07;22.93;;;;;;;6.31;54.40;97725.56;5032470;28;20198;-85
2022/01/13 11:27:31;;;;;;;37.23;23.63;;;;;;;6.14;55.21;97724.91;5031829;28;20202;-85
2022/01/13 11:29:57;;;;;;;29.40;21.70;;;;;;;6.00;54.33;97719.81;5031567;28;20235;-87
2022/01/13 11:32:24;;;;;;;31.97;20.97;;;;;;;6.01;53.50;97716.34;5030471;28;20896;-87
2022/01/13 11:34:54;;;;;;;26.37;20.23;;;;;;;5.99;53.55;97705.38;5031102;28;20887;-86
2022/01/13 11:37:21;;;;;;;28.00;19.00;;;;;;;6.12;52.79;97708.84;5031673;28;20209;-86
2022/01/13 11:39:47;;;;;;;26.33;18.87;;;;;;;6.12;51.95;97700.34;5030965;28;20225;-86
2022/01/13 11:42:15;;;;;;;24.50;18.27;;;;;;;6.08;52.22;97711.69;5029678;28;20202;-84
2022/01/13 11:44:43;;;;;;;27.90;19.17;;;;;;;6.34;52.98;97710.84;5025300;28;20251;-86